createdAt,value
2019-04-27T00:01:59.735Z,8.40
2019-04-27T00:04:34.682Z,8.40
2019-04-27T00:07:16.955Z,8.40
2019-04-27T00:09:51.227Z,8.30
2019-04-27T00:12:22.843Z,8.30
2019-04-27T00:14:48.250Z,8.30
2019-04-27T00:17:40.353Z,8.30
2019-04-27T00:19:51.354Z,8.30
2019-04-27T00:22:33.474Z,8.30
2019-04-27T00:25:00.123Z,8.30
2019-04-27T00:27:26.696Z,8.30
2019-04-27T00:29:53.580Z,8.30
2019-04-27T00:32:20.302Z,8.30
2019-04-27T00:34:46.840Z,8.30
2019-04-27T00:37:25.651Z,8.30
2019-04-27T00:39:54.087Z,8.30
2019-04-27T00:42:21.130Z,8.30
2019-04-27T00:44:47.762Z,8.30
2019-04-27T00:47:14.305Z,8.30
2019-04-27T00:49:40.846Z,8.30
2019-04-27T00:52:07.385Z,8.20
2019-04-27T00:54:34.076Z,8.20
2019-04-27T00:57:13.069Z,8.20
2019-04-27T00:59:47.541Z,8.20
2019-04-27T01:02:33.492Z,8.10
2019-04-27T01:05:04.067Z,8.10
2019-04-27T01:07:33.377Z,8.10
2019-04-27T01:10:00.041Z,8.10
2019-04-27T01:12:26.569Z,8.10
2019-04-27T01:14:53.555Z,8.10
2019-04-27T01:17:20.129Z,8.10
2019-04-27T01:19:46.672Z,8.10
2019-04-27T01:22:13.306Z,8.10
2019-04-27T01:24:39.838Z,8.10
2019-04-27T01:27:23.833Z,8.10
2019-04-27T01:29:51.775Z,8.00
2019-04-27T01:32:20.589Z,8.10
2019-04-27T01:34:47.061Z,8.10
2019-04-27T01:37:13.620Z,8.10
2019-04-27T01:39:40.162Z,8.10
2019-04-27T01:42:06.705Z,8.10
2019-04-27T01:44:33.242Z,8.10
2019-04-27T01:47:00.475Z,8.10
2019-04-27T01:49:27.008Z,8.10
2019-04-27T01:51:53.653Z,8.10
2019-04-27T01:54:22.113Z,8.10
2019-04-27T01:56:49.265Z,8.10
2019-04-27T01:59:16.081Z,8.10
2019-04-27T02:01:48.907Z,8.10
2019-04-27T02:04:19.345Z,8.10
2019-04-27T02:06:48.726Z,8.10
2019-04-27T02:09:18.690Z,8.10
2019-04-27T02:11:45.548Z,8.10
2019-04-27T02:14:12.184Z,8.10
2019-04-27T02:16:39.207Z,8.10
2019-04-27T02:19:05.987Z,8.10
2019-04-27T02:21:32.531Z,8.20
2019-04-27T02:23:59.855Z,8.20
2019-04-27T02:26:26.495Z,8.20
2019-04-27T02:28:54.966Z,8.20
2019-04-27T02:31:32.437Z,8.30
2019-04-27T02:33:59.581Z,8.30
2019-04-27T02:36:26.444Z,8.40
2019-04-27T02:38:52.992Z,8.40
2019-04-27T02:41:19.994Z,8.30
2019-04-27T02:43:51.209Z,8.30
2019-04-27T02:46:20.055Z,8.30
2019-04-27T02:48:58.601Z,8.30
2019-04-27T02:51:22.800Z,8.30
2019-04-27T02:53:52.730Z,8.30
2019-04-27T02:56:20.168Z,8.30
2019-04-27T02:58:49.363Z,8.30
2019-04-27T03:01:15.454Z,8.30
2019-04-27T03:03:41.970Z,8.30
2019-04-27T03:06:09.819Z,8.20
2019-04-27T03:08:36.434Z,8.20
2019-04-27T03:11:03.076Z,8.20
2019-04-27T03:13:31.740Z,8.20
2019-04-27T03:16:16.981Z,8.10
2019-04-27T03:18:45.473Z,8.10
2019-04-27T03:21:19.845Z,8.10
2019-04-27T03:23:45.321Z,8.10
2019-04-27T03:26:19.611Z,8.00
2019-04-27T03:28:45.747Z,8.00
2019-04-27T03:31:13.925Z,8.00
2019-04-27T03:33:42.799Z,8.00
2019-04-27T03:36:13.044Z,8.00
2019-04-27T03:38:39.642Z,8.00
2019-04-27T03:41:06.341Z,7.90
2019-04-27T03:43:32.971Z,7.90
2019-04-27T03:46:00.565Z,7.90
2019-04-27T03:48:29.431Z,7.90
2019-04-27T03:50:59.566Z,7.90
2019-04-27T03:53:46.495Z,7.90
2019-04-27T03:56:24.175Z,7.90
2019-04-27T03:58:55.617Z,7.90
2019-04-27T04:01:22.190Z,7.90
2019-04-27T04:03:50.140Z,7.90
2019-04-27T04:06:19.137Z,7.90
2019-04-27T04:08:45.620Z,7.90
2019-04-27T04:11:19.950Z,7.90
2019-04-27T04:13:49.492Z,7.90
2019-04-27T04:16:33.523Z,7.90
2019-04-27T04:19:09.776Z,7.90
2019-04-27T04:21:36.047Z,7.90
2019-04-27T04:24:03.622Z,7.90
2019-04-27T04:26:33.041Z,7.90
2019-04-27T04:28:59.857Z,8.00
2019-04-27T04:31:26.561Z,8.00
2019-04-27T04:33:53.095Z,8.00
2019-04-27T04:36:20.293Z,8.10
2019-04-27T04:38:47.099Z,8.10
2019-04-27T04:41:25.608Z,8.10
2019-04-27T04:44:03.307Z,8.20
2019-04-27T04:46:35.898Z,8.30
2019-04-27T04:49:02.420Z,8.40
2019-04-27T04:51:30.346Z,8.50
2019-04-27T04:53:59.784Z,8.50
2019-04-27T04:56:25.731Z,8.60
2019-04-27T04:58:52.254Z,8.60
2019-04-27T05:01:19.631Z,8.60
2019-04-27T05:03:46.411Z,8.60
2019-04-27T05:06:12.958Z,8.50
2019-04-27T05:08:39.495Z,8.50
2019-04-27T05:11:06.018Z,8.50
2019-04-27T05:13:32.551Z,8.50
2019-04-27T05:15:59.110Z,8.60
2019-04-27T05:18:25.662Z,8.70
2019-04-27T05:21:11.511Z,8.70
2019-04-27T05:23:38.811Z,8.70
2019-04-27T05:26:05.476Z,8.70
2019-04-27T05:28:32.015Z,8.60
2019-04-27T05:30:58.711Z,8.70
2019-04-27T05:33:28.559Z,8.70
2019-04-27T05:35:55.217Z,8.80
2019-04-27T05:38:21.761Z,9.00
2019-04-27T05:40:49.884Z,9.10
2019-04-27T05:43:19.390Z,9.10
2019-04-27T05:46:29.715Z,9.20
2019-04-27T05:49:01.634Z,9.30
2019-04-27T05:51:25.699Z,9.30
2019-04-27T05:53:52.487Z,9.40
2019-04-27T05:56:19.279Z,9.50
2019-04-27T05:58:49.126Z,9.60
2019-04-27T06:01:15.894Z,9.70
2019-04-27T06:03:42.420Z,9.80
2019-04-27T06:06:09.674Z,9.90
2019-04-27T06:08:36.400Z,10.10
2019-04-27T06:11:03.050Z,10.20
2019-04-27T06:13:31.007Z,10.30
2019-04-27T06:15:59.264Z,10.40
2019-04-27T06:18:25.965Z,10.50
2019-04-27T06:20:55.692Z,10.60
2019-04-27T06:23:21.115Z,10.60
2019-04-27T06:25:49.206Z,10.70
2019-04-27T06:28:16.150Z,10.80
2019-04-27T06:30:42.688Z,10.80
2019-04-27T06:33:09.496Z,10.90
2019-04-27T06:35:36.052Z,11.00
2019-04-27T06:38:02.695Z,11.00
2019-04-27T06:40:29.335Z,11.10
2019-04-27T06:42:55.887Z,11.20
2019-04-27T06:45:22.421Z,11.20
2019-04-27T06:47:51.312Z,11.40
2019-04-27T06:50:17.657Z,11.40
2019-04-27T06:52:44.190Z,11.40
2019-04-27T06:55:10.735Z,11.40
2019-04-27T06:57:37.269Z,11.40
2019-04-27T07:00:06.116Z,11.30
2019-04-27T07:02:32.645Z,11.20
2019-04-27T07:04:59.369Z,11.20
2019-04-27T07:07:25.989Z,11.20
2019-04-27T07:09:52.797Z,11.20
2019-04-27T07:12:19.352Z,11.20
2019-04-27T07:14:54.384Z,11.20
2019-04-27T07:17:14.319Z,11.20
2019-04-27T07:19:40.866Z,11.20
2019-04-27T07:22:09.091Z,11.30
2019-04-27T07:24:35.833Z,11.40
2019-04-27T07:27:03.080Z,11.40
2019-04-27T07:29:29.625Z,11.50
2019-04-27T07:31:56.361Z,11.60
2019-04-27T07:34:22.900Z,11.50
2019-04-27T07:36:49.426Z,11.40
2019-04-27T07:39:16.088Z,11.30
2019-04-27T07:41:42.671Z,11.20
2019-04-27T07:44:13.790Z,11.10
2019-04-27T07:46:40.337Z,11.00
2019-04-27T07:49:06.885Z,10.90
2019-04-27T07:51:34.362Z,10.80
2019-04-27T07:54:01.195Z,10.70
2019-04-27T07:56:29.139Z,10.70
2019-04-27T07:58:55.789Z,10.80
2019-04-27T08:01:22.303Z,10.90
2019-04-27T08:03:49.132Z,11.10
2019-04-27T08:06:15.775Z,11.20
2019-04-27T08:08:42.319Z,11.30
2019-04-27T08:11:11.400Z,11.50
2019-04-27T08:13:37.300Z,11.70
2019-04-27T08:16:03.837Z,11.80
2019-04-27T08:18:30.386Z,11.90
2019-04-27T08:20:58.947Z,12.00
2019-04-27T08:23:25.742Z,12.00
2019-04-27T08:25:52.303Z,12.00
2019-04-27T08:28:26.633Z,12.00
2019-04-27T08:30:56.366Z,11.90
2019-04-27T08:33:22.905Z,11.90
2019-04-27T08:35:49.469Z,11.80
2019-04-27T08:38:16.008Z,11.80
2019-04-27T08:40:42.551Z,11.90
2019-04-27T08:43:09.365Z,11.90
2019-04-27T08:45:36.890Z,11.90
2019-04-27T08:48:03.523Z,12.10
2019-04-27T08:50:30.068Z,12.30
2019-04-27T08:52:56.619Z,12.50
2019-04-27T08:55:23.176Z,12.60
2019-04-27T08:57:49.697Z,12.50
2019-04-27T09:00:19.284Z,12.40
2019-04-27T09:02:47.377Z,12.20
2019-04-27T09:05:16.467Z,12.10
2019-04-27T09:07:51.803Z,11.90
2019-04-27T09:10:36.067Z,11.80
2019-04-27T09:13:19.337Z,11.70
2019-04-27T09:15:46.151Z,11.60
2019-04-27T09:18:14.590Z,11.60
2019-04-27T09:20:51.907Z,11.60
2019-04-27T09:23:18.891Z,11.60
2019-04-27T09:25:45.420Z,11.60
2019-04-27T09:28:11.964Z,11.60
2019-04-27T09:30:39.323Z,11.60
2019-04-27T09:33:06.267Z,11.80
2019-04-27T09:35:32.980Z,12.00
2019-04-27T09:37:59.505Z,12.00
2019-04-27T09:40:26.784Z,12.10
2019-04-27T09:42:53.477Z,12.00
2019-04-27T09:45:20.131Z,11.90
2019-04-27T09:47:46.926Z,11.80
2019-04-27T09:50:14.101Z,11.70
2019-04-27T09:52:40.625Z,11.70
2019-04-27T09:55:08.514Z,11.90
2019-04-27T09:57:36.446Z,11.90
2019-04-27T10:00:08.901Z,12.00
2019-04-27T10:02:36.620Z,12.10
2019-04-27T10:05:06.104Z,12.30
2019-04-27T10:07:32.608Z,12.40
2019-04-27T10:09:59.166Z,12.40
2019-04-27T10:12:26.118Z,12.30
2019-04-27T10:14:52.868Z,12.20
2019-04-27T10:17:19.420Z,12.00
2019-04-27T10:19:46.203Z,11.90
2019-04-27T10:22:12.959Z,11.90
2019-04-27T10:24:39.537Z,11.90
2019-04-27T10:27:07.899Z,11.90
2019-04-27T10:29:35.572Z,12.00
2019-04-27T10:32:02.394Z,12.10
2019-04-27T10:34:29.031Z,12.20
2019-04-27T10:36:55.960Z,12.40
2019-04-27T10:39:22.618Z,12.50
2019-04-27T10:41:49.162Z,12.60
2019-04-27T10:44:16.259Z,12.70
2019-04-27T10:46:43.050Z,12.70
2019-04-27T10:49:09.812Z,12.90
2019-04-27T10:51:36.484Z,13.00
2019-04-27T10:54:04.947Z,13.10
2019-04-27T10:56:31.595Z,13.20
2019-04-27T10:58:58.137Z,13.10
2019-04-27T11:01:25.764Z,13.10
2019-04-27T11:03:55.525Z,13.00
2019-04-27T11:06:26.383Z,12.80
2019-04-27T11:08:52.916Z,12.70
2019-04-27T11:11:19.795Z,12.30
2019-04-27T11:13:46.426Z,12.20
2019-04-27T11:16:12.960Z,12.10
2019-04-27T11:18:39.494Z,12.10
2019-04-27T11:21:06.029Z,12.10
2019-04-27T11:23:32.570Z,12.10
2019-04-27T11:25:59.137Z,12.10
2019-04-27T11:28:25.943Z,12.20
2019-04-27T11:30:53.381Z,12.20
2019-04-27T11:33:19.929Z,12.20
2019-04-27T11:35:51.279Z,12.10
2019-04-27T11:38:18.088Z,12.10
2019-04-27T11:40:46.492Z,12.10
2019-04-27T11:43:13.080Z,12.30
2019-04-27T11:45:39.612Z,12.80
2019-04-27T11:48:06.144Z,13.40
2019-04-27T11:50:32.675Z,13.80
2019-04-27T11:52:59.217Z,13.90
2019-04-27T11:55:27.357Z,13.80
2019-04-27T11:57:55.876Z,13.60
2019-04-27T12:00:24.186Z,13.60
2019-04-27T12:02:50.771Z,13.70
2019-04-27T12:05:17.701Z,13.80
2019-04-27T12:07:47.424Z,13.60
2019-04-27T12:10:13.512Z,13.30
2019-04-27T12:12:40.053Z,12.90
2019-04-27T12:15:09.198Z,12.50
2019-04-27T12:17:35.964Z,12.20
2019-04-27T12:20:06.165Z,12.30
2019-04-27T12:22:32.710Z,12.60
2019-04-27T12:24:59.243Z,13.00
2019-04-27T12:27:30.720Z,13.40
2019-04-27T12:30:02.163Z,13.70
2019-04-27T12:32:29.023Z,13.80
2019-04-27T12:34:56.565Z,13.80
2019-04-27T12:37:23.203Z,13.80
2019-04-27T12:39:49.736Z,13.80
2019-04-27T12:42:16.291Z,13.80
2019-04-27T12:44:42.855Z,13.80
2019-04-27T12:47:09.393Z,13.90
2019-04-27T12:49:36.367Z,13.80
2019-04-27T12:52:05.854Z,13.70
2019-04-27T12:54:40.259Z,13.30
2019-04-27T12:57:11.959Z,13.00
2019-04-27T12:59:56.607Z,12.90
2019-04-27T13:02:26.606Z,12.80
2019-04-27T13:04:56.667Z,12.80
2019-04-27T13:07:23.485Z,12.80
2019-04-27T13:09:50.342Z,12.80
2019-04-27T13:12:16.874Z,12.70
2019-04-27T13:14:45.622Z,12.40
2019-04-27T13:17:12.150Z,12.30
2019-04-27T13:19:38.686Z,12.30
2019-04-27T13:22:06.191Z,12.20
2019-04-27T13:24:32.871Z,12.10
2019-04-27T13:26:59.418Z,12.10
2019-04-27T13:29:26.058Z,12.10
2019-04-27T13:31:52.589Z,12.00
2019-04-27T13:34:19.130Z,11.90
2019-04-27T13:36:45.819Z,11.90
2019-04-27T13:39:12.705Z,11.80
2019-04-27T13:41:39.541Z,11.70
2019-04-27T13:44:06.606Z,11.70
2019-04-27T13:46:51.900Z,11.60
2019-04-27T13:49:37.733Z,11.50
2019-04-27T13:52:06.221Z,11.50
2019-04-27T13:54:32.707Z,11.50
2019-04-27T13:56:59.239Z,11.40
2019-04-27T13:59:25.775Z,11.20
2019-04-27T14:01:52.613Z,10.90
2019-04-27T14:04:19.151Z,10.10
2019-04-27T14:06:45.932Z,9.30
2019-04-27T14:09:12.818Z,8.70
2019-04-27T14:11:39.506Z,8.20
2019-04-27T14:14:06.382Z,8.00
2019-04-27T14:16:32.912Z,7.80
2019-04-27T14:18:59.799Z,7.70
2019-04-27T14:21:26.340Z,7.50
2019-04-27T14:23:52.875Z,7.50
2019-04-27T14:26:19.407Z,7.40
2019-04-27T14:28:45.951Z,7.40
2019-04-27T14:31:12.489Z,7.40
2019-04-27T14:33:39.799Z,7.80
2019-04-27T14:36:08.197Z,7.20
2019-04-27T14:38:34.998Z,7.10
2019-04-27T14:41:01.556Z,6.90
2019-04-27T14:43:28.666Z,6.80
2019-04-27T14:45:55.243Z,6.90
2019-04-27T14:48:21.782Z,7.00
2019-04-27T14:50:48.668Z,7.30
2019-04-27T14:53:15.505Z,7.40
2019-04-27T14:55:42.434Z,7.50
2019-04-27T14:58:08.957Z,7.50
2019-04-27T15:00:35.898Z,7.50
2019-04-27T15:03:02.725Z,7.50
2019-04-27T15:05:29.407Z,7.50
2019-04-27T15:07:56.242Z,7.60
2019-04-27T15:10:28.640Z,7.60
2019-04-27T15:12:51.249Z,7.50
2019-04-27T15:15:17.894Z,7.40
2019-04-27T15:17:44.421Z,7.00
2019-04-27T15:20:31.095Z,6.80
2019-04-27T15:23:00.086Z,6.60
2019-04-27T15:25:26.731Z,6.30
2019-04-27T15:27:58.353Z,6.20
2019-04-27T15:30:26.816Z,6.20
2019-04-27T15:33:00.390Z,6.20
2019-04-27T15:35:29.471Z,6.30
2019-04-27T15:38:14.684Z,6.30
2019-04-27T15:40:59.847Z,6.40
2019-04-27T15:43:30.938Z,6.60
2019-04-27T15:45:57.628Z,6.60
2019-04-27T15:48:30.589Z,6.70
2019-04-27T15:50:53.841Z,6.80
2019-04-27T15:53:20.378Z,6.80
2019-04-27T15:55:47.148Z,6.70
2019-04-27T15:58:13.730Z,6.70
2019-04-27T16:00:40.709Z,6.80
2019-04-27T16:03:08.023Z,6.90
2019-04-27T16:05:36.101Z,7.00
2019-04-27T16:08:06.212Z,7.00
2019-04-27T16:10:32.943Z,7.10
2019-04-27T16:13:06.302Z,7.00
2019-04-27T16:15:29.947Z,7.10
2019-04-27T16:17:58.459Z,7.10
2019-04-27T16:20:30.028Z,7.10
2019-04-27T16:22:56.825Z,7.10
2019-04-27T16:25:23.584Z,7.20
2019-04-27T16:27:50.491Z,7.20
2019-04-27T16:30:20.430Z,7.30
2019-04-27T16:32:48.006Z,7.30
2019-04-27T16:35:19.606Z,7.40
2019-04-27T16:37:52.098Z,7.50
2019-04-27T16:40:24.396Z,7.50
2019-04-27T16:42:50.648Z,7.50
2019-04-27T16:45:16.362Z,7.50
2019-04-27T16:47:43.162Z,7.50
2019-04-27T16:50:10.191Z,7.50
2019-04-27T16:52:36.738Z,7.50
2019-04-27T16:55:04.059Z,7.60
2019-04-27T16:57:32.553Z,7.70
2019-04-27T17:00:00.980Z,7.70
2019-04-27T17:02:27.845Z,7.80
2019-04-27T17:04:55.630Z,7.80
2019-04-27T17:07:22.318Z,7.80
2019-04-27T17:09:49.431Z,7.80
2019-04-27T17:12:18.031Z,7.90
2019-04-27T17:14:58.654Z,7.90
2019-04-27T17:17:29.749Z,7.80
2019-04-27T17:20:01.061Z,7.70
2019-04-27T17:22:28.657Z,7.70
2019-04-27T17:24:55.244Z,7.60
2019-04-27T17:27:28.876Z,7.40
2019-04-27T17:29:57.981Z,7.00
2019-04-27T17:32:25.642Z,6.50
2019-04-27T17:34:51.072Z,6.20
2019-04-27T17:37:17.592Z,5.90
2019-04-27T17:39:44.130Z,5.70
2019-04-27T17:42:10.660Z,5.70
2019-04-27T17:44:39.158Z,5.50
2019-04-27T17:47:05.643Z,5.50
2019-04-27T17:49:32.176Z,5.50
2019-04-27T17:51:58.709Z,5.50
2019-04-27T17:54:25.248Z,5.60
2019-04-27T17:56:52.381Z,5.70
2019-04-27T17:59:20.885Z,5.80
2019-04-27T18:01:49.642Z,5.90
2019-04-27T18:04:18.394Z,5.90
2019-04-27T18:06:45.222Z,6.00
2019-04-27T18:09:15.371Z,6.00
2019-04-27T18:11:42.495Z,6.10
2019-04-27T18:14:14.369Z,6.10
2019-04-27T18:16:38.559Z,6.20
2019-04-27T18:19:11.717Z,6.20
2019-04-27T18:21:40.097Z,6.20
2019-04-27T18:24:14.642Z,6.20
2019-04-27T18:26:56.479Z,6.20
2019-04-27T18:29:22.807Z,6.20
2019-04-27T18:31:52.998Z,6.20
2019-04-27T18:34:18.945Z,6.20
2019-04-27T18:36:45.614Z,6.10
2019-04-27T18:39:13.696Z,6.00
2019-04-27T18:41:49.173Z,5.80
2019-04-27T18:44:11.138Z,5.70
2019-04-27T18:46:38.469Z,5.60
2019-04-27T18:49:08.915Z,5.50
2019-04-27T18:51:57.928Z,7.00
2019-04-27T18:54:22.783Z,5.20
2019-04-27T18:57:01.637Z,4.90
2019-04-27T18:59:18.748Z,4.70
2019-04-27T19:01:45.460Z,4.60
2019-04-27T19:04:12.320Z,4.50
2019-04-27T19:06:39.676Z,4.50
2019-04-27T19:09:08.242Z,4.50
2019-04-27T19:11:34.962Z,4.50
2019-04-27T19:14:01.569Z,4.50
2019-04-27T19:16:29.196Z,4.50
2019-04-27T19:18:55.983Z,4.60
2019-04-27T19:21:22.538Z,4.60
2019-04-27T19:23:49.414Z,4.60
2019-04-27T19:26:20.382Z,4.60
2019-04-27T19:29:05.753Z,4.70
2019-04-27T19:31:48.403Z,4.70
2019-04-27T19:34:17.708Z,4.70
2019-04-27T19:36:44.878Z,4.70
2019-04-27T19:39:14.005Z,4.60
2019-04-27T19:41:40.777Z,4.60
2019-04-27T19:44:08.579Z,4.60
2019-04-27T19:46:35.766Z,4.70
2019-04-27T19:49:03.015Z,4.70
2019-04-27T19:51:29.576Z,4.60
2019-04-27T19:53:58.044Z,4.70
2019-04-27T19:56:24.585Z,4.70
2019-04-27T19:58:53.238Z,4.70
2019-04-27T20:01:38.326Z,4.70
2019-04-27T20:04:13.183Z,4.80
2019-04-27T20:06:39.772Z,4.80
2019-04-27T20:09:26.048Z,4.80
2019-04-27T20:11:52.929Z,4.90
2019-04-27T20:14:20.892Z,4.90
2019-04-27T20:16:47.617Z,4.90
2019-04-27T20:19:14.143Z,5.00
2019-04-27T20:21:40.870Z,5.00
2019-04-27T20:24:07.530Z,5.00
2019-04-27T20:26:34.126Z,5.00
2019-04-27T20:29:01.516Z,5.00
2019-04-27T20:31:28.163Z,5.00
2019-04-27T20:33:54.697Z,5.00
2019-04-27T20:36:21.438Z,5.00
2019-04-27T20:38:48.061Z,4.90
2019-04-27T20:41:14.602Z,4.90
2019-04-27T20:43:42.036Z,4.90
2019-04-27T20:46:08.810Z,4.80
2019-04-27T20:48:35.383Z,4.80
2019-04-27T20:51:01.941Z,4.90
2019-04-27T20:53:33.658Z,4.80
2019-04-27T20:56:00.376Z,4.90
2019-04-27T20:58:26.931Z,4.90
2019-04-27T21:00:53.498Z,4.90
2019-04-27T21:03:21.948Z,4.80
2019-04-27T21:05:57.635Z,4.80
2019-04-27T21:08:26.090Z,4.80
2019-04-27T21:10:52.621Z,4.80
2019-04-27T21:13:19.164Z,4.80
2019-04-27T21:15:45.701Z,4.70
2019-04-27T21:18:12.256Z,4.70
2019-04-27T21:20:38.789Z,4.70
2019-04-27T21:23:05.637Z,4.60
2019-04-27T21:25:33.588Z,4.60
2019-04-27T21:28:14.860Z,4.50
2019-04-27T21:30:28.851Z,4.50
2019-04-27T21:32:55.388Z,4.50
2019-04-27T21:35:21.926Z,4.50
2019-04-27T21:37:48.467Z,4.60
2019-04-27T21:40:22.172Z,4.60
2019-04-27T21:42:51.063Z,4.60
2019-04-27T21:45:18.279Z,4.70
2019-04-27T21:47:45.499Z,4.70
2019-04-27T21:50:14.456Z,4.70
2019-04-27T21:52:45.642Z,4.70
2019-04-27T21:55:14.078Z,4.70
2019-04-27T21:57:41.059Z,4.80
2019-04-27T22:00:27.006Z,4.70
2019-04-27T22:02:53.586Z,4.70
2019-04-27T22:05:21.018Z,4.70
2019-04-27T22:07:47.652Z,4.70
2019-04-27T22:10:14.199Z,4.70
2019-04-27T22:12:41.623Z,4.70
2019-04-27T22:15:08.467Z,4.60
2019-04-27T22:17:35.003Z,4.60
2019-04-27T22:20:05.239Z,4.50
2019-04-27T22:22:42.468Z,4.50
2019-04-27T22:25:11.658Z,4.50
2019-04-27T22:27:38.273Z,4.40
2019-04-27T22:30:06.000Z,4.40
2019-04-27T22:32:32.894Z,4.40
2019-04-27T22:35:04.234Z,4.40
2019-04-27T22:37:31.209Z,4.40
2019-04-27T22:40:11.514Z,4.30
2019-04-27T22:42:51.580Z,4.30
2019-04-27T22:45:20.131Z,4.30
2019-04-27T22:47:46.668Z,4.20
2019-04-27T22:50:13.202Z,4.20
2019-04-27T22:52:41.077Z,4.20
2019-04-27T22:55:07.889Z,4.20
2019-04-27T22:57:36.447Z,4.10
2019-04-27T23:00:08.006Z,4.10
2019-04-27T23:02:36.438Z,4.10
2019-04-27T23:05:04.583Z,4.10
2019-04-27T23:07:31.612Z,4.10
2019-04-27T23:09:58.525Z,4.00
2019-04-27T23:12:25.062Z,4.00
2019-04-27T23:14:51.613Z,4.00
2019-04-27T23:17:36.480Z,3.90
2019-04-27T23:20:05.018Z,3.90
2019-04-27T23:22:31.639Z,3.90
2019-04-27T23:24:58.172Z,4.00
2019-04-27T23:27:24.706Z,4.00
2019-04-27T23:29:51.609Z,4.10
2019-04-27T23:32:21.073Z,4.00
2019-04-27T23:34:48.696Z,3.90
2019-04-27T23:37:15.227Z,3.90
2019-04-27T23:39:41.779Z,3.80
2019-04-27T23:42:08.302Z,3.80
2019-04-27T23:44:34.839Z,3.80
2019-04-27T23:47:01.364Z,3.70
2019-04-27T23:49:27.922Z,3.70
2019-04-27T23:51:56.359Z,3.70
2019-04-27T23:54:23.034Z,3.70
2019-04-27T23:56:49.563Z,3.70
2019-04-27T23:59:24.714Z,3.70
